createdAt,value
2024-02-13T00:02:51.133Z,-67
2024-02-13T00:07:53.215Z,-70
2024-02-13T00:12:54.840Z,-71
2024-02-13T00:17:56.567Z,-71
2024-02-13T00:23:00.617Z,-70
2024-02-13T00:28:02.276Z,-71
2024-02-13T00:33:06.618Z,-69
2024-02-13T00:38:09.295Z,-68
2024-02-13T00:43:11.046Z,-68
2024-02-13T00:48:12.794Z,-70
2024-02-13T00:53:17.176Z,-69
2024-02-13T00:58:18.872Z,-69
2024-02-13T01:03:24.089Z,-69
2024-02-13T01:08:25.745Z,-68
2024-02-13T01:13:27.537Z,-68
2024-02-13T01:18:30.571Z,-68
2024-02-13T01:23:34.194Z,-67
2024-02-13T01:28:36.717Z,-68
2024-02-13T01:33:38.600Z,-67
2024-02-13T01:38:40.372Z,-68
2024-02-13T01:43:42.184Z,-68
2024-02-13T01:48:44.002Z,-68
2024-02-13T01:53:46.515Z,-68
2024-02-13T01:58:50.016Z,-68
2024-02-13T02:03:54.102Z,-68
2024-02-13T02:08:58.041Z,-68
2024-02-13T02:14:01.656Z,-68
2024-02-13T02:19:04.314Z,-68
2024-02-13T02:24:07.641Z,-68
2024-02-13T02:29:09.942Z,-68
2024-02-13T02:34:11.964Z,-68
2024-02-13T02:39:13.740Z,-68
2024-02-13T02:44:15.411Z,-70
2024-02-13T02:49:20.348Z,-67
2024-02-13T02:54:25.004Z,-69
2024-02-13T02:59:28.056Z,-69
2024-02-13T03:04:29.771Z,-69
2024-02-13T03:09:31.494Z,-70
2024-02-13T03:14:33.467Z,-68
2024-02-13T03:19:35.509Z,-68
2024-02-13T03:24:37.076Z,-69
2024-02-13T03:29:38.740Z,-69
2024-02-13T03:34:40.375Z,-68
2024-02-13T03:39:44.723Z,-68
2024-02-13T03:44:47.125Z,-67
2024-02-13T03:49:49.009Z,-68
2024-02-13T03:54:50.909Z,-68
2024-02-13T03:59:53.182Z,-68
2024-02-13T04:04:54.950Z,-69
2024-02-13T04:09:56.531Z,-67
2024-02-13T04:14:58.193Z,-67
2024-02-13T04:19:59.821Z,-68
2024-02-13T04:25:01.434Z,-67
2024-02-13T04:30:04.139Z,-67
2024-02-13T04:35:10.031Z,-67
2024-02-13T04:40:14.542Z,-68
2024-02-13T04:45:16.387Z,-69
2024-02-13T04:50:21.223Z,-68
2024-02-13T04:55:24.282Z,-69
2024-02-13T05:00:27.588Z,-67
2024-02-13T05:05:47.896Z,-68
2024-02-13T05:10:49.773Z,-69
2024-02-13T05:15:51.737Z,-70
2024-02-13T05:20:53.303Z,-69
2024-02-13T05:25:54.898Z,-68
2024-02-13T05:30:57.228Z,-69
2024-02-13T05:35:58.863Z,-69
2024-02-13T05:41:00.467Z,-67
2024-02-13T05:46:02.074Z,-70
2024-02-13T05:51:06.770Z,-70
2024-02-13T05:56:11.737Z,-68
2024-02-13T06:01:15.071Z,-70
2024-02-13T06:06:17.014Z,-69
2024-02-13T06:11:18.758Z,-71
2024-02-13T06:16:20.478Z,-73
2024-02-13T06:21:24.511Z,-71
2024-02-13T06:26:28.146Z,-68
2024-02-13T06:31:33.850Z,-66
2024-02-13T06:36:35.448Z,-68
2024-02-13T06:41:37.819Z,-66
2024-02-13T06:46:39.469Z,-67
2024-02-13T06:51:41.029Z,-66
2024-02-13T06:56:42.606Z,-68
2024-02-13T07:01:44.317Z,-65
2024-02-13T07:06:58.547Z,-66
2024-02-13T07:12:07.380Z,-69
2024-02-13T07:17:10.497Z,-70
2024-02-13T07:22:12.164Z,-70
2024-02-13T07:27:13.737Z,-68
2024-02-13T07:32:15.380Z,-70
2024-02-13T07:37:16.996Z,-70
2024-02-13T07:42:18.640Z,-71
2024-02-13T07:47:22.854Z,-71
2024-02-13T07:52:24.623Z,-71
2024-02-13T07:57:26.218Z,-72
2024-02-13T08:02:29.451Z,-70
2024-02-13T08:07:31.178Z,-72
2024-02-13T08:12:33.265Z,-72
2024-02-13T08:17:34.937Z,-70
2024-02-13T08:22:36.646Z,-70
2024-02-13T08:27:38.760Z,-68
2024-02-13T08:32:43.401Z,-72
2024-02-13T08:37:45.305Z,-70
2024-02-13T08:42:46.954Z,-70
2024-02-13T08:47:48.611Z,-68
2024-02-13T08:52:50.342Z,-71
2024-02-13T08:57:52.915Z,-72
2024-02-13T09:02:54.854Z,-71
2024-02-13T09:07:56.576Z,-73
2024-02-13T09:12:58.223Z,-71
2024-02-13T09:18:00.511Z,-70
2024-02-13T09:23:02.538Z,-71
2024-02-13T09:28:04.292Z,-70
2024-02-13T09:33:05.880Z,-70
2024-02-13T09:38:08.086Z,-69
2024-02-13T09:43:09.817Z,-72
2024-02-13T09:48:21.539Z,-72
2024-02-13T09:53:30.682Z,-72
2024-02-13T09:58:33.501Z,-72
2024-02-13T10:03:38.167Z,-72
2024-02-13T10:08:41.471Z,-70
2024-02-13T10:13:47.171Z,-70
2024-02-13T10:18:59.003Z,-71
2024-02-13T10:24:08.220Z,-71
2024-02-13T10:29:10.562Z,-67
2024-02-13T10:34:13.275Z,-67
2024-02-13T10:39:23.629Z,-67
2024-02-13T10:44:28.901Z,-67
2024-02-13T10:49:45.059Z,-68
2024-02-13T10:54:49.441Z,-74
2024-02-13T10:59:52.532Z,-70
2024-02-13T11:04:56.839Z,-73
2024-02-13T11:09:58.662Z,-69
2024-02-13T11:15:27.897Z,-69
2024-02-13T11:20:29.840Z,-68
2024-02-13T11:25:35.813Z,-69
2024-02-13T11:30:39.547Z,-69
2024-02-13T11:35:54.907Z,-73
2024-02-13T11:40:56.712Z,-69
2024-02-13T11:45:58.576Z,-66
2024-02-13T11:51:00.501Z,-67
2024-02-13T11:56:05.267Z,-69
2024-02-13T12:01:07.265Z,-72
2024-02-13T12:06:10.720Z,-75
2024-02-13T12:11:13.103Z,-73
2024-02-13T12:16:16.603Z,-77
2024-02-13T12:21:18.180Z,-74
2024-02-13T12:26:19.835Z,-77
2024-02-13T12:31:23.055Z,-68
2024-02-13T12:36:25.639Z,-81
2024-02-13T12:41:27.276Z,-70
2024-02-13T12:46:36.171Z,-79
2024-02-13T12:51:40.652Z,-80
2024-02-13T12:56:42.696Z,-67
2024-02-13T13:01:49.078Z,-73
2024-02-13T13:06:52.604Z,-81
2024-02-13T13:11:55.501Z,-76
2024-02-13T13:16:58.022Z,-86
2024-02-13T13:22:01.368Z,-81
2024-02-13T13:27:05.207Z,-73
2024-02-13T13:32:07.358Z,-70
2024-02-13T13:37:09.037Z,-71
2024-02-13T13:42:11.165Z,-67
2024-02-13T13:47:12.895Z,-72
2024-02-13T13:52:14.550Z,-81
2024-02-13T13:57:16.580Z,-79
2024-02-13T14:02:18.304Z,-78
2024-02-13T14:07:21.130Z,-82
2024-02-13T14:12:22.965Z,-76
2024-02-13T14:17:24.993Z,-72
2024-02-13T14:22:28.160Z,-75
2024-02-13T14:27:29.734Z,-75
2024-02-13T14:32:31.426Z,-76
2024-02-13T14:37:33.060Z,-68
2024-02-13T14:42:34.892Z,-71
2024-02-13T14:47:40.320Z,-71
2024-02-13T14:52:43.106Z,-73
2024-02-13T14:57:52.333Z,-74
2024-02-13T15:03:02.308Z,-74
2024-02-13T15:08:04.459Z,-76
2024-02-13T15:13:08.030Z,-76
2024-02-13T15:18:09.899Z,-77
2024-02-13T15:23:14.275Z,-71
2024-02-13T15:28:17.018Z,-75
2024-02-13T15:33:22.843Z,-74
2024-02-13T15:38:43.567Z,-75
2024-02-13T15:44:03.959Z,-72
2024-02-13T15:49:06.593Z,-77
2024-02-13T15:54:10.103Z,-75
2024-02-13T15:59:11.805Z,-72
2024-02-13T16:04:13.507Z,-77
2024-02-13T16:09:15.115Z,-77
2024-02-13T16:14:18.043Z,-78
2024-02-13T16:19:19.745Z,-81
2024-02-13T16:24:21.358Z,-76
2024-02-13T16:29:24.963Z,-74
2024-02-13T16:34:31.820Z,-73
2024-02-13T16:39:38.135Z,-66
2024-02-13T16:44:40.302Z,-78
2024-02-13T16:49:42.342Z,-76
2024-02-13T16:54:44.006Z,-71
2024-02-13T16:59:45.685Z,-69
2024-02-13T17:04:47.335Z,-71
2024-02-13T17:09:50.574Z,-73
2024-02-13T17:14:52.161Z,-67
2024-02-13T17:19:55.233Z,-66
2024-02-13T17:24:56.960Z,-69
2024-02-13T17:29:59.365Z,-67
2024-02-13T17:35:01.226Z,-68
2024-02-13T17:40:04.502Z,-67
2024-02-13T17:45:07.292Z,-65
2024-02-13T17:50:10.559Z,-66
2024-02-13T17:55:17.629Z,-64
2024-02-13T18:00:24.555Z,-72
2024-02-13T18:05:26.369Z,-77
2024-02-13T18:10:27.963Z,-63
2024-02-13T18:15:29.580Z,-70
2024-02-13T18:20:32.923Z,-69
2024-02-13T18:25:38.006Z,-70
2024-02-13T18:30:40.334Z,-71
2024-02-13T18:35:44.802Z,-65
2024-02-13T18:40:46.639Z,-69
2024-02-13T18:45:49.470Z,-69
2024-02-13T18:50:51.220Z,-71
2024-02-13T18:55:53.179Z,-67
2024-02-13T19:00:54.897Z,-68
2024-02-13T19:05:57.391Z,-68
2024-02-13T19:11:00.039Z,-67
2024-02-13T19:16:01.685Z,-66
2024-02-13T19:21:03.381Z,-66
2024-02-13T19:26:05.395Z,-68
2024-02-13T19:31:10.117Z,-67
2024-02-13T19:36:11.802Z,-67
2024-02-13T19:41:14.343Z,-70
2024-02-13T19:46:15.925Z,-68
2024-02-13T19:51:17.959Z,-66
2024-02-13T19:56:19.644Z,-69
2024-02-13T20:01:22.829Z,-69
2024-02-13T20:06:24.715Z,-64
2024-02-13T20:11:28.433Z,-69
2024-02-13T20:16:31.551Z,-69
2024-02-13T20:21:33.697Z,-68
2024-02-13T20:26:38.811Z,-66
2024-02-13T20:31:40.441Z,-67
2024-02-13T20:36:42.462Z,-63
2024-02-13T20:41:44.148Z,-67
2024-02-13T20:46:45.745Z,-71
2024-02-13T20:51:47.283Z,-74
2024-02-13T20:56:49.969Z,-68
2024-02-13T21:01:52.611Z,-69
2024-02-13T21:06:55.550Z,-70
2024-02-13T21:11:57.170Z,-67
2024-02-13T21:16:58.847Z,-70
2024-02-13T21:22:19.038Z,-70
2024-02-13T21:27:21.424Z,-67
2024-02-13T21:32:23.157Z,-65
2024-02-13T21:37:24.700Z,-68
2024-02-13T21:42:26.386Z,-66
2024-02-13T21:47:28.264Z,-66
2024-02-13T21:52:30.204Z,-66
2024-02-13T21:57:32.072Z,-67
2024-02-13T22:02:34.789Z,-67
2024-02-13T22:07:38.908Z,-68
2024-02-13T22:12:42.964Z,-69
2024-02-13T22:17:46.179Z,-69
2024-02-13T22:22:47.834Z,-68
2024-02-13T22:27:49.361Z,-70
2024-02-13T22:32:52.811Z,-68
2024-02-13T22:37:55.064Z,-69
2024-02-13T22:42:56.654Z,-69
2024-02-13T22:48:03.213Z,-68
2024-02-13T22:53:05.145Z,-68
2024-02-13T22:58:07.091Z,-69
2024-02-13T23:03:09.364Z,-69
2024-02-13T23:08:11.137Z,-68
2024-02-13T23:13:14.099Z,-69
2024-02-13T23:18:16.283Z,-69
2024-02-13T23:23:18.396Z,-68
2024-02-13T23:28:20.149Z,-69
2024-02-13T23:33:21.883Z,-68
2024-02-13T23:38:23.747Z,-67
2024-02-13T23:43:26.017Z,-69
2024-02-13T23:48:27.698Z,-68
2024-02-13T23:53:29.804Z,-67
2024-02-13T23:58:33.519Z,-69
